10VG weather

WAVY TV Heliport
Portsmouth, Virginia, United States

Public forecast

Using degrees Fahrenheit for public forecast. Weather courtesy of forecast.io.

Closest aviation weather report (METAR) to WAVY TV Heliport

Closest report is Norfolk International Airport, 6.1 nm (11.3 km) NE. Retrieved 2020/01/17 22:51 UTC (54 minutes ago):

KORF 172251Z 01011G19KT 10SM CLR 03/M06 A3068 RMK AO2 SLP387 T00331061

Closest aviation forecast (TAF) to WAVY TV Heliport

Closest forecast is Norfolk International Airport, 6.1 nm (11.3 km) NE. Retrieved 2020/01/17 18:45 UTC (5 hours ago):

TAF KORF 171743Z 1718/1818 01013G21KT P6SM SKC FM180000 02008KT P6SM SCT250 FM180600 05004KT P6SM BKN200 FM181200 14005KT P6SM BKN150 FM181700 18008KT P6SM BKN120